Time,TemperatureF,DewpointF,PressureIn,WindDirection,WindDirectionDegrees,WindSpeedMPH,WindSpeedGustMPH,Humidity,HourlyPrecipIn,Conditions,Clouds,dailyrainin,SoftwareType,DateUTC
2013-09-26 00:00:00,55.5,55.5,29.19,NW,317,0.0,0.0,100,0.03,,,0.00,VWS V14.00,2013-09-26 04:00:00,
2013-09-26 00:01:00,55.5,55.5,29.19,NW,319,0.0,0.0,100,0.03,,,1.58,VWS V14.00,2013-09-26 04:01:00,
2013-09-26 00:06:00,55.5,55.5,29.19,NW,317,0.0,0.0,100,0.02,,,0.00,VWS V14.00,2013-09-26 04:06:00,
2013-09-26 00:11:00,55.3,55.3,29.19,NW,316,0.0,1.0,100,0.06,,,0.04,VWS V14.00,2013-09-26 04:11:00,
2013-09-26 00:16:00,55.3,55.3,29.19,NW,316,0.0,1.0,100,0.07,,,0.05,VWS V14.00,2013-09-26 04:16:00,
2013-09-26 00:21:00,55.3,55.3,29.19,NW,316,0.0,1.0,100,0.08,,,0.06,VWS V14.00,2013-09-26 04:21:00,
2013-09-26 00:26:00,55.3,55.3,29.19,NW,316,0.0,1.0,100,0.08,,,0.06,VWS V14.00,2013-09-26 04:26:00,
2013-09-26 00:30:00,55.3,55.3,29.19,NW,316,0.0,1.0,100,0.09,,,0.07,VWS V14.00,2013-09-26 04:30:00,
2013-09-26 00:31:00,55.3,55.3,29.19,NW,316,0.0,1.0,100,0.09,,,0.07,VWS V14.00,2013-09-26 04:31:00,
2013-09-26 00:36:00,55.3,55.3,29.19,NW,316,0.0,0.0,100,0.08,,,0.07,VWS V14.00,2013-09-26 04:36:00,
2013-09-26 00:41:00,55.4,55.4,29.19,NW,316,0.0,0.0,100,0.08,,,0.07,VWS V14.00,2013-09-26 04:41:00,
2013-09-26 00:46:00,55.4,55.4,29.19,NW,316,0.0,0.0,100,0.08,,,0.07,VWS V14.00,2013-09-26 04:46:00,
2013-09-26 00:51:00,55.4,55.4,29.19,NW,316,0.0,0.0,100,0.08,,,0.07,VWS V14.00,2013-09-26 04:51:00,
2013-09-26 00:56:00,55.4,55.4,29.19,NW,316,0.0,0.0,100,0.09,,,0.08,VWS V14.00,2013-09-26 04:56:00,
2013-09-26 01:00:00,55.3,55.3,29.19,NW,316,0.0,0.0,100,0.09,,,0.08,VWS V14.00,2013-09-26 05:00:00,
2013-09-26 01:01:00,55.3,55.3,29.19,NW,316,0.0,0.0,100,0.09,,,0.08,VWS V14.00,2013-09-26 05:01:00,
2013-09-26 01:06:00,55.3,55.3,29.19,NW,316,0.0,0.0,100,0.08,,,0.08,VWS V14.00,2013-09-26 05:06:00,
2013-09-26 01:12:00,55.3,55.3,29.19,NW,316,0.0,0.0,100,0.08,,,0.08,VWS V14.00,2013-09-26 05:12:00,
2013-09-26 01:17:00,55.3,55.3,29.19,NW,316,0.0,0.0,100,0.08,,,0.08,VWS V14.00,2013-09-26 05:17:00,
2013-09-26 01:22:00,55.2,55.2,29.19,NW,316,0.0,0.0,100,0.08,,,0.08,VWS V14.00,2013-09-26 05:22:00,
2013-09-26 01:27:00,55.2,55.2,29.19,NW,316,0.0,0.0,100,0.08,,,0.08,VWS V14.00,2013-09-26 05:27:00,
2013-09-26 01:30:00,55.1,55.1,29.19,NW,316,0.0,0.0,100,0.08,,,0.08,VWS V14.00,2013-09-26 05:30:00,
2013-09-26 01:32:00,55.1,55.1,29.19,NW,316,0.0,0.0,100,0.08,,,0.08,VWS V14.00,2013-09-26 05:32:00,
2013-09-26 01:37:00,55.1,55.1,29.19,NW,316,0.0,0.0,100,0.01,,,0.08,VWS V14.00,2013-09-26 05:37:00,
2013-09-26 01:42:00,55.1,55.1,29.20,NW,316,0.0,0.0,100,0.02,,,0.09,VWS V14.00,2013-09-26 05:42:00,
2013-09-26 01:47:00,55.1,55.1,29.19,NW,316,0.0,0.0,100,0.02,,,0.09,VWS V14.00,2013-09-26 05:47:00,
2013-09-26 01:52:00,55.2,55.2,29.19,NW,316,0.0,0.0,100,0.02,,,0.09,VWS V14.00,2013-09-26 05:52:00,
2013-09-26 01:57:00,55.1,55.1,29.20,NW,316,0.0,0.0,100,0.02,,,0.09,VWS V14.00,2013-09-26 05:57:00,
2013-09-26 02:00:00,55.1,55.1,29.19,NW,316,0.0,0.0,100,0.02,,,0.09,VWS V14.00,2013-09-26 06:00:00,
2013-09-26 02:02:00,55.1,55.1,29.19,NW,316,0.0,0.0,100,0.02,,,0.09,VWS V14.00,2013-09-26 06:02:00,
2013-09-26 02:07:00,55.1,55.1,29.19,NW,316,0.0,0.0,100,0.01,,,0.09,VWS V14.00,2013-09-26 06:07:00,
2013-09-26 02:12:00,55.1,55.1,29.20,NW,316,0.0,0.0,100,0.01,,,0.09,VWS V14.00,2013-09-26 06:12:00,
2013-09-26 02:17:00,55.1,55.1,29.20,NW,316,0.0,0.0,100,0.01,,,0.09,VWS V14.00,2013-09-26 06:17:00,
2013-09-26 02:22:00,55.1,55.1,29.20,NW,316,0.0,0.0,100,0.01,,,0.09,VWS V14.00,2013-09-26 06:22:00,
2013-09-26 02:27:00,55.2,55.2,29.20,NW,316,0.0,0.0,100,0.01,,,0.09,VWS V14.00,2013-09-26 06:27:00,
2013-09-26 02:30:00,55.1,55.1,29.20,NW,316,0.0,1.0,100,0.01,,,0.09,VWS V14.00,2013-09-26 06:30:00,
2013-09-26 02:32:00,55.2,55.2,29.20,NW,316,0.0,1.0,100,0.01,,,0.09,VWS V14.00,2013-09-26 06:32:00,
2013-09-26 02:37:00,55.1,55.1,29.21,NW,316,0.0,0.0,100,0.01,,,0.09,VWS V14.00,2013-09-26 06:37:00,
2013-09-26 02:42:00,55.2,55.2,29.21,NW,316,0.0,0.0,100,0.01,,,0.09,VWS V14.00,2013-09-26 06:42:00,
2013-09-26 02:47:00,55.2,55.2,29.20,NW,316,0.0,0.0,100,0.01,,,0.09,VWS V14.00,2013-09-26 06:47:00,
2013-09-26 02:52:00,55.1,55.1,29.20,NW,316,0.0,0.0,100,0.01,,,0.09,VWS V14.00,2013-09-26 06:52:00,
2013-09-26 02:57:00,55.1,55.1,29.21,NW,316,0.0,0.0,100,0.01,,,0.09,VWS V14.00,2013-09-26 06:57:00,
2013-09-26 03:00:00,55.1,55.1,29.21,NW,316,0.0,0.0,100,0.01,,,0.09,VWS V14.00,2013-09-26 07:00:00,
2013-09-26 03:02:00,55.1,55.1,29.21,NW,316,0.0,0.0,100,0.01,,,0.09,VWS V14.00,2013-09-26 07:02:00,
2013-09-26 03:07:00,55.1,55.1,29.21,NW,316,0.0,0.0,100,0.01,,,0.09,VWS V14.00,2013-09-26 07:07:00,
2013-09-26 03:12:00,55.1,55.1,29.21,NW,316,0.0,0.0,100,0.00,,,0.09,VWS V14.00,2013-09-26 07:12:00,
2013-09-26 03:17:00,55.1,55.1,29.21,NW,316,0.0,0.0,100,0.00,,,0.09,VWS V14.00,2013-09-26 07:17:00,
2013-09-26 03:22:00,55.0,55.0,29.21,NW,316,0.0,0.0,100,0.00,,,0.09,VWS V14.00,2013-09-26 07:22:00,
2013-09-26 03:27:00,54.9,54.9,29.21,NW,316,0.0,0.0,100,0.00,,,0.09,VWS V14.00,2013-09-26 07:27:00,
2013-09-26 03:30:00,54.9,54.9,29.21,NW,316,0.0,0.0,100,0.00,,,0.09,VWS V14.00,2013-09-26 07:30:00,
2013-09-26 03:32:00,54.9,54.9,29.21,NW,316,0.0,0.0,100,0.00,,,0.09,VWS V14.00,2013-09-26 07:32:00,
2013-09-26 03:37:00,54.9,54.9,29.21,NW,316,0.0,0.0,100,0.00,,,0.09,VWS V14.00,2013-09-26 07:37:00,
2013-09-26 03:42:00,55.0,55.0,29.21,NW,316,0.0,0.0,100,0.00,,,0.09,VWS V14.00,2013-09-26 07:42:00,
2013-09-26 03:47:00,55.0,55.0,29.21,NW,316,0.0,0.0,100,0.00,,,0.09,VWS V14.00,2013-09-26 07:47:00,
2013-09-26 03:52:00,54.9,54.9,29.21,NW,316,0.0,0.0,100,0.00,,,0.09,VWS V14.00,2013-09-26 07:52:00,
2013-09-26 03:57:00,54.9,54.9,29.21,NW,316,0.0,0.0,100,0.00,,,0.09,VWS V14.00,2013-09-26 07:57:00,
2013-09-26 04:00:00,54.9,54.9,29.21,NW,316,0.0,0.0,100,0.00,,,0.09,VWS V14.00,2013-09-26 08:00:00,
2013-09-26 04:02:00,54.9,54.9,29.21,NW,316,0.0,0.0,100,0.00,,,0.09,VWS V14.00,2013-09-26 08:02:00,
2013-09-26 04:07:00,54.9,54.9,29.21,NW,316,0.0,0.0,100,0.00,,,0.09,VWS V14.00,2013-09-26 08:07:00,
2013-09-26 04:12:00,55.0,55.0,29.21,NW,316,0.0,0.0,100,0.00,,,0.09,VWS V14.00,2013-09-26 08:12:00,
2013-09-26 04:17:00,55.0,55.0,29.21,NW,316,0.0,0.0,100,0.00,,,0.09,VWS V14.00,2013-09-26 08:17:00,
2013-09-26 04:22:00,55.0,55.0,29.21,NW,316,0.0,0.0,100,0.00,,,0.09,VWS V14.00,2013-09-26 08:22:00,
2013-09-26 04:27:00,54.9,54.9,29.21,NW,316,0.0,0.0,100,0.00,,,0.09,VWS V14.00,2013-09-26 08:27:00,
2013-09-26 04:34:00,55.0,55.0,29.21,NW,316,0.0,0.0,100,0.00,,,0.09,VWS V14.00,2013-09-26 08:34:00,
2013-09-26 04:39:00,55.0,55.0,29.22,NW,316,0.0,0.0,100,0.00,,,0.09,VWS V14.00,2013-09-26 08:39:00,
2013-09-26 04:44:00,55.0,55.0,29.22,NW,316,0.0,0.0,100,0.00,,,0.09,VWS V14.00,2013-09-26 08:44:00,
2013-09-26 04:49:00,55.1,55.1,29.22,NW,316,0.0,0.0,100,0.00,,,0.09,VWS V14.00,2013-09-26 08:49:00,
2013-09-26 04:54:00,55.2,55.2,29.22,NW,316,0.0,0.0,100,0.00,,,0.09,VWS V14.00,2013-09-26 08:54:00,
2013-09-26 04:59:00,55.2,55.2,29.22,NW,316,0.0,0.0,100,0.00,,,0.09,VWS V14.00,2013-09-26 08:59:00,
2013-09-26 05:04:00,55.3,55.3,29.22,NW,316,0.0,0.0,100,0.00,,,0.09,VWS V14.00,2013-09-26 09:04:00,
2013-09-26 05:09:00,55.2,55.2,29.22,NW,316,0.0,0.0,100,0.00,,,0.09,VWS V14.00,2013-09-26 09:09:00,
2013-09-26 05:14:00,55.1,55.1,29.22,NW,316,0.0,0.0,100,0.00,,,0.09,VWS V14.00,2013-09-26 09:14:00,
2013-09-26 05:19:00,54.8,54.8,29.22,NW,316,0.0,0.0,100,0.00,,,0.09,VWS V14.00,2013-09-26 09:19:00,
2013-09-26 05:24:00,54.7,54.7,29.22,NW,316,0.0,0.0,100,0.00,,,0.09,VWS V14.00,2013-09-26 09:24:00,
2013-09-26 05:29:00,54.6,54.6,29.23,NW,316,0.0,0.0,100,0.00,,,0.09,VWS V14.00,2013-09-26 09:29:00,
2013-09-26 05:34:00,54.7,54.7,29.23,NW,316,0.0,0.0,100,0.00,,,0.09,VWS V14.00,2013-09-26 09:34:00,
2013-09-26 05:39:00,54.8,54.8,29.23,NW,316,0.0,0.0,100,0.00,,,0.09,VWS V14.00,2013-09-26 09:39:00,
2013-09-26 05:44:00,54.8,54.8,29.23,NW,316,0.0,0.0,100,0.00,,,0.09,VWS V14.00,2013-09-26 09:44:00,
2013-09-26 05:49:00,54.8,54.8,29.23,NW,316,0.0,0.0,100,0.00,,,0.09,VWS V14.00,2013-09-26 09:49:00,
2013-09-26 05:54:00,54.7,54.7,29.23,NW,316,0.0,0.0,100,0.00,,,0.09,VWS V14.00,2013-09-26 09:54:00,
2013-09-26 05:59:00,54.6,54.6,29.23,NW,316,0.0,0.0,100,0.00,,,0.09,VWS V14.00,2013-09-26 09:59:00,
2013-09-26 06:04:00,54.5,54.5,29.23,NW,316,0.0,0.0,100,0.00,,,0.09,VWS V14.00,2013-09-26 10:04:00,
2013-09-26 06:09:00,54.5,54.5,29.22,NW,316,0.0,0.0,100,0.00,,,0.09,VWS V14.00,2013-09-26 10:09:00,
2013-09-26 06:14:00,54.4,54.4,29.23,NW,316,0.0,0.0,100,0.00,,,0.09,VWS V14.00,2013-09-26 10:14:00,
2013-09-26 06:19:00,54.4,54.4,29.23,NW,316,0.0,0.0,100,0.00,,,0.09,VWS V14.00,2013-09-26 10:19:00,
2013-09-26 06:24:00,54.4,54.4,29.23,NW,316,0.0,0.0,100,0.00,,,0.09,VWS V14.00,2013-09-26 10:24:00,
2013-09-26 06:29:00,54.4,54.4,29.23,NW,316,0.0,0.0,100,0.00,,,0.09,VWS V14.00,2013-09-26 10:29:00,
2013-09-26 06:34:00,54.5,54.5,29.23,NW,316,0.0,0.0,100,0.00,,,0.09,VWS V14.00,2013-09-26 10:34:00,
2013-09-26 06:39:00,54.6,54.6,29.23,NW,316,0.0,0.0,100,0.00,,,0.09,VWS V14.00,2013-09-26 10:39:00,
2013-09-26 06:44:00,54.7,54.7,29.24,NW,316,0.0,0.0,100,0.00,,,0.09,VWS V14.00,2013-09-26 10:44:00,
2013-09-26 06:49:00,54.9,54.9,29.24,NW,316,0.0,0.0,100,0.00,,,0.09,VWS V14.00,2013-09-26 10:49:00,
2013-09-26 06:54:00,55.1,55.1,29.24,NW,316,0.0,0.0,100,0.00,,,0.09,VWS V14.00,2013-09-26 10:54:00,
2013-09-26 06:59:00,55.2,55.2,29.25,NW,316,0.0,0.0,100,0.00,,,0.09,VWS V14.00,2013-09-26 10:59:00,
2013-09-26 07:04:00,55.2,55.2,29.25,NW,316,0.0,0.0,100,0.00,,,0.09,VWS V14.00,2013-09-26 11:04:00,
2013-09-26 07:09:00,55.1,55.1,29.25,NW,316,0.0,0.0,100,0.00,,,0.09,VWS V14.00,2013-09-26 11:09:00,
2013-09-26 07:14:00,55.0,55.0,29.25,NW,316,0.0,0.0,100,0.00,,,0.09,VWS V14.00,2013-09-26 11:14:00,
2013-09-26 07:19:00,55.0,55.0,29.26,NW,316,0.0,0.0,100,0.00,,,0.09,VWS V14.00,2013-09-26 11:19:00,
2013-09-26 07:24:00,55.0,55.0,29.26,NW,316,0.0,0.0,100,0.00,,,0.09,VWS V14.00,2013-09-26 11:24:00,
2013-09-26 07:29:00,54.9,54.9,29.27,NW,316,0.0,0.0,100,0.00,,,0.09,VWS V14.00,2013-09-26 11:29:00,
2013-09-26 07:34:00,54.8,54.8,29.27,NW,316,0.0,0.0,100,0.00,,,0.09,VWS V14.00,2013-09-26 11:34:00,
2013-09-26 07:39:00,54.8,54.8,29.27,NW,316,0.0,0.0,100,0.00,,,0.09,VWS V14.00,2013-09-26 11:39:00,
2013-09-26 07:44:00,54.9,54.9,29.27,NW,316,0.0,0.0,100,0.00,,,0.09,VWS V14.00,2013-09-26 11:44:00,
2013-09-26 07:49:00,55.0,55.0,29.27,NW,316,0.0,0.0,100,0.00,,,0.09,VWS V14.00,2013-09-26 11:49:00,
2013-09-26 07:54:00,55.1,55.1,29.28,NW,316,0.0,0.0,100,0.00,,,0.09,VWS V14.00,2013-09-26 11:54:00,
2013-09-26 07:59:00,55.2,55.2,29.28,NW,316,0.0,0.0,100,0.00,,,0.09,VWS V14.00,2013-09-26 11:59:00,
2013-09-26 08:04:00,55.3,55.3,29.28,NW,316,0.0,0.0,100,0.00,,,0.09,VWS V14.00,2013-09-26 12:04:00,
2013-09-26 08:09:00,55.5,55.5,29.28,NW,317,0.0,0.0,100,0.00,,,0.09,VWS V14.00,2013-09-26 12:09:00,
2013-09-26 08:14:00,55.7,55.7,29.28,NW,317,0.0,0.0,100,0.00,,,0.09,VWS V14.00,2013-09-26 12:14:00,
2013-09-26 08:19:00,55.8,55.8,29.28,NW,317,0.0,0.0,100,0.00,,,0.09,VWS V14.00,2013-09-26 12:19:00,
2013-09-26 08:24:00,55.7,55.7,29.28,NNW,345,0.0,0.0,100,0.00,,,0.09,VWS V14.00,2013-09-26 12:24:00,
2013-09-26 08:29:00,55.7,55.7,29.28,NNW,346,0.0,0.0,100,0.00,,,0.09,VWS V14.00,2013-09-26 12:29:00,
2013-09-26 08:34:00,55.8,55.8,29.29,NNW,345,0.0,0.0,100,0.00,,,0.09,VWS V14.00,2013-09-26 12:34:00,
2013-09-26 08:39:00,55.9,55.9,29.29,NNW,345,0.0,0.0,100,0.00,,,0.09,VWS V14.00,2013-09-26 12:39:00,
2013-09-26 08:44:00,56.0,56.0,29.29,NNW,345,0.0,0.0,100,0.00,,,0.09,VWS V14.00,2013-09-26 12:44:00,
2013-09-26 08:49:00,56.5,56.5,29.29,NNW,346,0.0,0.0,100,0.00,,,0.09,VWS V14.00,2013-09-26 12:49:00,
2013-09-26 08:54:00,56.5,56.5,29.29,NNW,345,0.0,0.0,100,0.00,,,0.09,VWS V14.00,2013-09-26 12:54:00,
2013-09-26 08:59:00,56.5,56.5,29.29,NNW,345,0.0,0.0,100,0.00,,,0.09,VWS V14.00,2013-09-26 12:59:00,
2013-09-26 09:04:00,56.8,56.8,29.29,NNW,345,0.0,0.0,100,0.00,,,0.09,VWS V14.00,2013-09-26 13:04:00,
2013-09-26 09:09:00,57.0,57.0,29.29,NNW,347,0.0,0.0,100,0.00,,,0.09,VWS V14.00,2013-09-26 13:09:00,
2013-09-26 09:14:00,57.1,57.1,29.30,East,96,0.0,0.0,100,0.00,,,0.09,VWS V14.00,2013-09-26 13:14:00,
2013-09-26 09:19:00,57.1,57.1,29.29,East,96,0.0,0.0,100,0.00,,,0.09,VWS V14.00,2013-09-26 13:19:00,
2013-09-26 09:24:00,57.3,57.3,29.30,East,96,0.0,0.0,100,0.00,,,0.09,VWS V14.00,2013-09-26 13:24:00,
2013-09-26 09:29:00,57.4,57.4,29.30,East,96,0.0,0.0,100,0.00,,,0.09,VWS V14.00,2013-09-26 13:29:00,
2013-09-26 09:34:00,57.5,57.5,29.30,East,96,0.0,0.0,100,0.00,,,0.09,VWS V14.00,2013-09-26 13:34:00,
2013-09-26 09:39:00,57.5,57.5,29.30,East,96,0.0,0.0,100,0.00,,,0.09,VWS V14.00,2013-09-26 13:39:00,
2013-09-26 09:45:00,57.5,57.5,29.30,East,96,0.0,0.0,100,0.00,,,0.09,VWS V14.00,2013-09-26 13:45:00,
2013-09-26 09:50:00,57.8,57.8,29.30,East,96,0.0,0.0,100,0.00,,,0.09,VWS V14.00,2013-09-26 13:50:00,
2013-09-26 09:55:00,58.0,58.0,29.30,East,96,0.0,0.0,100,0.00,,,0.09,VWS V14.00,2013-09-26 13:55:00,
2013-09-26 09:59:00,58.2,58.2,29.30,East,96,0.0,0.0,100,0.00,,,0.09,VWS V14.00,2013-09-26 13:59:00,
2013-09-26 10:04:00,58.3,58.3,29.31,East,96,0.0,0.0,100,0.00,,,0.09,VWS V14.00,2013-09-26 14:04:00,
2013-09-26 10:09:00,58.4,58.4,29.31,East,96,0.0,0.0,100,0.00,,,0.09,VWS V14.00,2013-09-26 14:09:00,
2013-09-26 10:14:00,58.9,58.9,29.31,East,96,0.0,0.0,100,0.00,,,0.09,VWS V14.00,2013-09-26 14:14:00,
2013-09-26 10:19:00,59.3,59.3,29.31,East,96,0.0,0.0,100,0.00,,,0.09,VWS V14.00,2013-09-26 14:19:00,
2013-09-26 10:24:00,59.0,59.0,29.31,North,9,0.0,2.0,100,0.00,,,0.09,VWS V14.00,2013-09-26 14:24:00,
2013-09-26 10:29:00,59.3,59.3,29.31,North,9,0.0,2.0,100,0.00,,,0.09,VWS V14.00,2013-09-26 14:29:00,
2013-09-26 10:34:00,59.5,59.5,29.31,North,11,0.0,2.0,100,0.00,,,0.09,VWS V14.00,2013-09-26 14:34:00,
2013-09-26 10:39:00,59.7,59.7,29.31,North,11,0.0,0.0,100,0.00,,,0.09,VWS V14.00,2013-09-26 14:39:00,
2013-09-26 10:44:00,59.2,59.2,29.31,NNE,16,0.0,0.0,100,0.00,,,0.09,VWS V14.00,2013-09-26 14:44:00,
2013-09-26 10:50:00,59.2,59.2,29.31,NNE,16,0.0,0.0,100,0.00,,,0.09,VWS V14.00,2013-09-26 14:50:00,
2013-09-26 10:55:00,59.3,59.3,29.31,NE,44,0.0,0.0,100,0.01,,,0.10,VWS V14.00,2013-09-26 14:55:00,
2013-09-26 11:00:00,59.2,59.2,29.31,ESE,102,0.0,0.0,100,0.01,,,0.10,VWS V14.00,2013-09-26 15:00:00,
2013-09-26 11:05:00,59.5,59.5,29.32,ESE,102,0.0,0.0,100,0.01,,,0.10,VWS V14.00,2013-09-26 15:05:00,
2013-09-26 11:10:00,59.9,59.9,29.31,East,101,0.0,0.0,100,0.01,,,0.10,VWS V14.00,2013-09-26 15:10:00,
2013-09-26 11:15:00,60.3,60.3,29.31,ESE,119,0.0,0.0,100,0.01,,,0.10,VWS V14.00,2013-09-26 15:15:00,
2013-09-26 11:20:00,61.1,61.1,29.31,NE,39,0.0,0.0,100,0.01,,,0.10,VWS V14.00,2013-09-26 15:20:00,
2013-09-26 11:25:00,61.6,61.6,29.31,ESE,105,0.0,0.0,100,0.01,,,0.10,VWS V14.00,2013-09-26 15:25:00,
2013-09-26 11:30:00,61.5,61.5,29.31,ESE,106,0.0,0.0,100,0.01,,,0.10,VWS V14.00,2013-09-26 15:30:00,
2013-09-26 11:35:00,61.5,61.5,29.30,ESE,106,0.0,0.0,100,0.01,,,0.10,VWS V14.00,2013-09-26 15:35:00,
2013-09-26 11:40:00,61.5,61.5,29.30,ESE,105,0.0,0.0,100,0.01,,,0.10,VWS V14.00,2013-09-26 15:40:00,
2013-09-26 11:45:00,61.5,61.5,29.30,East,97,0.0,0.0,100,0.01,,,0.10,VWS V14.00,2013-09-26 15:45:00,
2013-09-26 11:50:00,61.4,61.4,29.30,ENE,77,0.0,0.0,100,0.01,,,0.10,VWS V14.00,2013-09-26 15:50:00,
2013-09-26 11:55:00,61.5,61.2,29.30,ENE,77,0.0,0.0,99,0.01,,,0.10,VWS V14.00,2013-09-26 15:55:00,
2013-09-26 12:00:00,62.0,61.7,29.30,ENE,72,0.0,0.0,99,0.01,,,0.10,VWS V14.00,2013-09-26 16:00:00,
2013-09-26 12:05:00,61.6,61.3,29.30,ENE,68,0.0,0.0,99,0.01,,,0.10,VWS V14.00,2013-09-26 16:05:00,
2013-09-26 12:10:00,61.7,61.4,29.30,ENE,77,0.0,1.0,99,0.00,,,0.10,VWS V14.00,2013-09-26 16:10:00,
2013-09-26 12:15:00,61.6,61.0,29.30,East,94,0.0,3.0,98,0.00,,,0.10,VWS V14.00,2013-09-26 16:15:00,
2013-09-26 12:20:00,61.9,61.3,29.30,NNW,338,0.0,3.0,98,0.00,,,0.10,VWS V14.00,2013-09-26 16:20:00,
2013-09-26 12:25:00,62.2,61.6,29.30,NNE,27,0.0,3.0,98,0.00,,,0.10,VWS V14.00,2013-09-26 16:25:00,
2013-09-26 12:30:00,62.3,61.4,29.30,ENE,72,0.0,3.0,97,0.00,,,0.10,VWS V14.00,2013-09-26 16:30:00,
2013-09-26 12:36:00,62.5,61.6,29.30,ENE,72,0.0,3.0,97,0.00,,,0.10,VWS V14.00,2013-09-26 16:36:00,
2013-09-26 12:41:00,62.3,60.8,29.30,SW,226,0.0,0.0,95,0.00,,,0.10,VWS V14.00,2013-09-26 16:41:00,
2013-09-26 12:46:00,62.2,60.5,29.30,East,79,2.0,2.0,94,0.00,,,0.10,VWS V14.00,2013-09-26 16:46:00,
2013-09-26 12:51:00,62.0,60.0,29.30,ENE,61,0.0,3.0,93,0.00,,,0.10,VWS V14.00,2013-09-26 16:51:00,
2013-09-26 12:56:00,62.1,60.1,29.30,ENE,68,0.0,3.0,93,0.00,,,0.10,VWS V14.00,2013-09-26 16:56:00,
2013-09-26 13:01:00,62.3,60.0,29.30,ENE,68,0.0,3.0,92,0.00,,,0.10,VWS V14.00,2013-09-26 17:01:00,
2013-09-26 13:06:00,62.4,60.0,29.30,ESE,118,1.0,1.0,92,0.00,,,0.10,VWS V14.00,2013-09-26 17:06:00,
2013-09-26 13:11:00,62.4,60.0,29.30,ESE,115,0.0,1.0,92,0.00,,,0.10,VWS V14.00,2013-09-26 17:11:00,
2013-09-26 13:16:00,62.6,60.5,29.30,ESE,115,0.0,1.0,93,0.00,,,0.10,VWS V14.00,2013-09-26 17:16:00,
2013-09-26 13:21:00,62.8,60.8,29.30,East,92,0.0,3.0,93,0.00,,,0.10,VWS V14.00,2013-09-26 17:21:00,
2013-09-26 13:26:00,62.7,59.7,29.30,East,86,1.0,3.0,90,0.00,,,0.10,VWS V14.00,2013-09-26 17:26:00,
2013-09-26 13:32:00,62.6,59.6,29.30,South,172,0.0,3.0,90,0.00,,,0.10,VWS V14.00,2013-09-26 17:32:00,
2013-09-26 13:37:00,62.3,59.3,29.30,South,191,0.0,0.0,90,0.00,,,0.10,VWS V14.00,2013-09-26 17:37:00,
2013-09-26 13:42:00,62.2,59.8,29.30,ESE,110,0.0,0.0,92,0.00,,,0.10,VWS V14.00,2013-09-26 17:42:00,
2013-09-26 13:47:00,62.0,59.3,29.30,SSE,160,0.0,0.0,91,0.00,,,0.10,VWS V14.00,2013-09-26 17:47:00,
2013-09-26 13:52:00,62.2,59.8,29.30,East,94,1.0,1.0,92,0.00,,,0.10,VWS V14.00,2013-09-26 17:52:00,
2013-09-26 13:57:00,62.8,60.8,29.30,East,96,0.0,2.0,93,0.00,,,0.10,VWS V14.00,2013-09-26 17:57:00,
2013-09-26 14:02:00,63.2,60.2,29.30,SSW,198,1.0,2.0,90,0.00,,,0.10,VWS V14.00,2013-09-26 18:02:00,
2013-09-26 14:07:00,63.5,60.2,29.29,NNW,338,1.0,2.0,89,0.00,,,0.10,VWS V14.00,2013-09-26 18:07:00,
2013-09-26 14:12:00,64.1,60.8,29.29,North,8,0.0,3.0,89,0.00,,,0.10,VWS V14.00,2013-09-26 18:12:00,
2013-09-26 14:17:00,64.6,61.0,29.29,SE,136,0.0,3.0,88,0.00,,,0.10,VWS V14.00,2013-09-26 18:17:00,
2013-09-26 14:22:00,64.8,60.8,29.28,NNW,328,0.0,3.0,87,0.00,,,0.10,VWS V14.00,2013-09-26 18:22:00,
2013-09-26 14:27:00,64.7,60.1,29.28,East,79,0.0,3.0,85,0.00,,,0.10,VWS V14.00,2013-09-26 18:27:00,
2013-09-26 14:32:00,65.1,60.2,29.28,East,96,1.0,3.0,84,0.00,,,0.10,VWS V14.00,2013-09-26 18:32:00,
2013-09-26 14:37:00,65.5,60.5,29.27,SSW,208,0.0,1.0,84,0.00,,,0.10,VWS V14.00,2013-09-26 18:37:00,
2013-09-26 14:42:00,65.6,61.0,29.27,East,84,1.0,2.0,85,0.00,,,0.10,VWS V14.00,2013-09-26 18:42:00,
2013-09-26 14:47:00,65.6,60.3,29.27,NNW,333,0.0,2.0,83,0.00,,,0.10,VWS V14.00,2013-09-26 18:47:00,
2013-09-26 14:52:00,65.6,60.6,29.27,East,93,0.0,2.0,84,0.00,,,0.10,VWS V14.00,2013-09-26 18:52:00,
2013-09-26 14:57:00,65.8,60.8,29.27,East,79,0.0,2.0,84,0.00,,,0.10,VWS V14.00,2013-09-26 18:57:00,
2013-09-26 15:02:00,66.2,60.2,29.26,East,83,0.0,3.0,81,0.00,,,0.10,VWS V14.00,2013-09-26 19:02:00,
2013-09-26 15:07:00,66.8,60.4,29.26,West,262,0.0,1.0,80,0.00,,,0.10,VWS V14.00,2013-09-26 19:07:00,
2013-09-26 15:12:00,67.3,60.2,29.26,East,94,1.0,2.0,78,0.00,,,0.10,VWS V14.00,2013-09-26 19:12:00,
2013-09-26 15:17:00,68.4,61.6,29.26,NW,311,1.0,3.0,79,0.00,,,0.10,VWS V14.00,2013-09-26 19:17:00,
2013-09-26 15:22:00,69.2,62.8,29.26,ESE,121,1.0,4.0,80,0.00,,,0.10,VWS V14.00,2013-09-26 19:22:00,
2013-09-26 15:27:00,68.8,61.7,29.26,SSW,203,0.0,8.0,78,0.00,,,0.10,VWS V14.00,2013-09-26 19:27:00,
2013-09-26 15:32:00,68.1,60.6,29.26,WSW,255,1.0,8.0,77,0.00,,,0.10,VWS V14.00,2013-09-26 19:32:00,
2013-09-26 15:37:00,68.1,61.3,29.26,NW,304,0.0,2.0,79,0.00,,,0.10,VWS V14.00,2013-09-26 19:37:00,
2013-09-26 15:42:00,68.3,61.5,29.26,WSW,253,1.0,7.0,79,0.00,,,0.10,VWS V14.00,2013-09-26 19:42:00,
2013-09-26 15:47:00,68.1,61.3,29.26,SW,224,0.0,7.0,79,0.00,,,0.10,VWS V14.00,2013-09-26 19:47:00,
2013-09-26 15:52:00,67.5,60.4,29.26,SW,222,0.0,7.0,78,0.00,,,0.10,VWS V14.00,2013-09-26 19:52:00,
2013-09-26 15:57:00,67.5,61.1,29.26,ENE,67,0.0,7.0,80,0.00,,,0.10,VWS V14.00,2013-09-26 19:57:00,
2013-09-26 16:02:00,67.9,61.9,29.26,SSE,154,0.0,7.0,81,0.00,,,0.10,VWS V14.00,2013-09-26 20:02:00,
2013-09-26 16:07:00,68.3,61.9,29.26,WNW,296,0.0,1.0,80,0.00,,,0.10,VWS V14.00,2013-09-26 20:07:00,
2013-09-26 16:12:00,69.0,63.3,29.26,SSE,149,0.0,3.0,82,0.00,,,0.10,VWS V14.00,2013-09-26 20:12:00,
2013-09-26 16:17:00,69.8,61.9,29.26,North,5,0.0,3.0,76,0.00,,,0.10,VWS V14.00,2013-09-26 20:17:00,
2013-09-26 16:22:00,70.1,61.8,29.26,East,100,1.0,4.0,75,0.00,,,0.10,VWS V14.00,2013-09-26 20:22:00,
2013-09-26 16:27:00,69.9,61.2,29.26,NNW,328,1.0,7.0,74,0.00,,,0.10,VWS V14.00,2013-09-26 20:27:00,
2013-09-26 16:32:00,70.4,62.1,29.26,SE,138,1.0,7.0,75,0.00,,,0.10,VWS V14.00,2013-09-26 20:32:00,
2013-09-26 16:37:00,70.8,60.9,29.26,ENE,73,1.0,4.0,71,0.00,,,0.10,VWS V14.00,2013-09-26 20:37:00,
2013-09-26 16:42:00,70.6,60.0,29.26,WSW,248,2.0,6.0,69,0.00,,,0.10,VWS V14.00,2013-09-26 20:42:00,
2013-09-26 16:47:00,70.7,61.6,29.26,ENE,77,2.0,6.0,73,0.00,,,0.10,VWS V14.00,2013-09-26 20:47:00,
2013-09-26 16:52:00,70.9,60.6,29.26,ENE,69,2.0,6.0,70,0.00,,,0.10,VWS V14.00,2013-09-26 20:52:00,
2013-09-26 16:57:00,70.8,60.9,29.26,SW,219,1.0,6.0,71,0.00,,,0.10,VWS V14.00,2013-09-26 20:57:00,
2013-09-26 17:02:00,71.1,62.0,29.26,ESE,121,0.0,6.0,73,0.00,,,0.10,VWS V14.00,2013-09-26 21:02:00,
2013-09-26 17:07:00,70.8,61.7,29.26,WSW,242,1.0,2.0,73,0.00,,,0.10,VWS V14.00,2013-09-26 21:07:00,
2013-09-26 17:12:00,71.4,62.3,29.26,SE,134,1.0,3.0,73,0.00,,,0.10,VWS V14.00,2013-09-26 21:12:00,
2013-09-26 17:17:00,71.3,61.4,29.26,East,89,0.0,4.0,71,0.00,,,0.10,VWS V14.00,2013-09-26 21:17:00,
2013-09-26 17:22:00,70.9,61.0,29.26,East,100,0.0,4.0,71,0.00,,,0.10,VWS V14.00,2013-09-26 21:22:00,
2013-09-26 17:28:00,70.4,60.2,29.26,SSE,164,1.0,7.0,70,0.00,,,0.10,VWS V14.00,2013-09-26 21:28:00,
2013-09-26 17:33:00,70.4,59.8,29.26,ESE,104,2.0,7.0,69,0.00,,,0.10,VWS V14.00,2013-09-26 21:33:00,
2013-09-26 17:38:00,70.1,60.3,29.26,ESE,112,0.0,4.0,71,0.00,,,0.10,VWS V14.00,2013-09-26 21:38:00,
2013-09-26 17:43:00,69.9,60.1,29.27,NW,308,2.0,6.0,71,0.00,,,0.10,VWS V14.00,2013-09-26 21:43:00,
2013-09-26 17:48:00,69.3,59.9,29.27,ENE,70,2.0,6.0,72,0.00,,,0.10,VWS V14.00,2013-09-26 21:48:00,
2013-09-26 17:53:00,69.0,61.1,29.27,NE,39,0.0,6.0,76,0.00,,,0.10,VWS V14.00,2013-09-26 21:53:00,
2013-09-26 17:58:00,69.2,61.0,29.27,ESE,110,0.0,6.0,75,0.00,,,0.10,VWS V14.00,2013-09-26 21:58:00,
2013-09-26 18:03:00,69.2,60.6,29.27,SSE,162,0.0,6.0,74,0.00,,,0.10,VWS V14.00,2013-09-26 22:03:00,
2013-09-26 18:08:00,68.6,60.4,29.27,East,88,2.0,3.0,75,0.00,,,0.10,VWS V14.00,2013-09-26 22:08:00,
2013-09-26 18:13:00,68.2,59.2,29.27,ESE,115,1.0,3.0,73,0.00,,,0.10,VWS V14.00,2013-09-26 22:13:00,
2013-09-26 18:18:00,68.1,59.5,29.27,SE,130,1.0,3.0,74,0.00,,,0.10,VWS V14.00,2013-09-26 22:18:00,
2013-09-26 18:23:00,67.8,60.0,29.27,East,100,1.0,3.0,76,0.00,,,0.10,VWS V14.00,2013-09-26 22:23:00,
2013-09-26 18:28:00,67.5,59.3,29.28,East,100,0.0,4.0,75,0.00,,,0.10,VWS V14.00,2013-09-26 22:28:00,
2013-09-26 18:33:00,67.5,59.7,29.27,SE,131,1.0,4.0,76,0.00,,,0.10,VWS V14.00,2013-09-26 22:33:00,
2013-09-26 18:38:00,67.3,59.5,29.28,SE,143,1.0,1.0,76,0.00,,,0.10,VWS V14.00,2013-09-26 22:38:00,
2013-09-26 18:43:00,66.9,59.1,29.28,SSE,165,0.0,2.0,76,0.00,,,0.10,VWS V14.00,2013-09-26 22:43:00,
2013-09-26 18:48:00,66.4,58.6,29.29,South,173,1.0,2.0,76,0.00,,,0.10,VWS V14.00,2013-09-26 22:48:00,
2013-09-26 18:53:00,65.5,58.1,29.29,ESE,118,0.0,2.0,77,0.00,,,0.10,VWS V14.00,2013-09-26 22:53:00,
2013-09-26 18:58:00,64.4,57.4,29.29,SSW,197,0.0,3.0,78,0.00,,,0.10,VWS V14.00,2013-09-26 22:58:00,
2013-09-26 19:03:00,63.4,57.1,29.30,ESE,108,0.0,3.0,80,0.00,,,0.10,VWS V14.00,2013-09-26 23:03:00,
2013-09-26 19:08:00,62.5,56.6,29.30,South,174,0.0,0.0,81,0.00,,,0.10,VWS V14.00,2013-09-26 23:08:00,
2013-09-26 19:13:00,61.8,56.6,29.30,South,174,0.0,0.0,83,0.00,,,0.10,VWS V14.00,2013-09-26 23:13:00,
2013-09-26 19:18:00,61.2,56.3,29.30,SSE,160,0.0,1.0,84,0.00,,,0.10,VWS V14.00,2013-09-26 23:18:00,
2013-09-26 19:23:00,60.8,56.3,29.30,SSE,160,0.0,1.0,85,0.00,,,0.10,VWS V14.00,2013-09-26 23:23:00,
2013-09-26 19:28:00,60.4,55.9,29.30,ESE,115,0.0,3.0,85,0.00,,,0.10,VWS V14.00,2013-09-26 23:28:00,
2013-09-26 19:33:00,60.0,55.8,29.30,SSE,151,0.0,3.0,86,0.00,,,0.10,VWS V14.00,2013-09-26 23:33:00,
2013-09-26 19:38:00,59.8,55.6,29.30,SSE,150,0.0,0.0,86,0.00,,,0.10,VWS V14.00,2013-09-26 23:38:00,
2013-09-26 19:43:00,59.6,55.7,29.30,SSE,150,0.0,0.0,87,0.00,,,0.10,VWS V14.00,2013-09-26 23:43:00,
2013-09-26 19:48:00,59.4,55.8,29.31,SSE,153,1.0,1.0,88,0.00,,,0.10,VWS V14.00,2013-09-26 23:48:00,
2013-09-26 19:53:00,59.3,55.8,29.31,ESE,108,0.0,1.0,88,0.00,,,0.10,VWS V14.00,2013-09-26 23:53:00,
2013-09-26 19:58:00,59.2,55.7,29.31,ESE,107,0.0,1.0,88,0.00,,,0.10,VWS V14.00,2013-09-26 23:58:00,
2013-09-26 20:03:00,59.1,55.9,29.31,ESE,108,0.0,1.0,89,0.00,,,0.10,VWS V14.00,2013-09-27 00:03:00,
2013-09-26 20:10:00,59.0,55.8,29.32,ESE,109,0.0,0.0,89,0.00,,,0.10,VWS V14.00,2013-09-27 00:10:00,
2013-09-26 20:15:00,58.9,55.7,29.32,ESE,120,0.0,0.0,89,0.00,,,0.10,VWS V14.00,2013-09-27 00:15:00,
2013-09-26 20:20:00,58.8,55.6,29.33,ESE,120,0.0,0.0,89,0.00,,,0.10,VWS V14.00,2013-09-27 00:20:00,
2013-09-26 20:25:00,58.7,55.5,29.33,ESE,120,0.0,0.0,89,0.00,,,0.10,VWS V14.00,2013-09-27 00:25:00,
2013-09-26 20:30:00,58.7,55.5,29.33,ESE,120,0.0,0.0,89,0.00,,,0.10,VWS V14.00,2013-09-27 00:30:00,
2013-09-26 20:35:00,58.6,55.7,29.33,ESE,120,0.0,0.0,90,0.00,,,0.10,VWS V14.00,2013-09-27 00:35:00,
2013-09-26 20:40:00,58.5,55.9,29.33,ESE,120,0.0,0.0,91,0.00,,,0.10,VWS V14.00,2013-09-27 00:40:00,
2013-09-26 20:45:00,58.4,55.8,29.34,ESE,120,0.0,0.0,91,0.00,,,0.10,VWS V14.00,2013-09-27 00:45:00,
2013-09-26 20:50:00,58.4,55.8,29.34,ESE,120,0.0,0.0,91,0.00,,,0.10,VWS V14.00,2013-09-27 00:50:00,
2013-09-26 20:55:00,58.3,55.7,29.35,ESE,120,0.0,0.0,91,0.00,,,0.10,VWS V14.00,2013-09-27 00:55:00,
2013-09-26 21:00:00,58.4,56.1,29.35,ESE,120,0.0,0.0,92,0.00,,,0.10,VWS V14.00,2013-09-27 01:00:00,
2013-09-26 21:05:00,58.4,56.1,29.35,ESE,120,0.0,0.0,92,0.00,,,0.10,VWS V14.00,2013-09-27 01:05:00,
2013-09-26 21:10:00,58.4,56.1,29.35,ESE,120,0.0,0.0,92,0.00,,,0.10,VWS V14.00,2013-09-27 01:10:00,
2013-09-26 21:15:00,58.4,55.8,29.35,ESE,120,0.0,0.0,91,0.00,,,0.10,VWS V14.00,2013-09-27 01:15:00,
2013-09-26 21:20:00,58.4,56.4,29.35,ESE,120,0.0,0.0,93,0.00,,,0.10,VWS V14.00,2013-09-27 01:20:00,
2013-09-26 21:26:00,58.2,55.9,29.36,ESE,121,0.0,0.0,92,0.00,,,0.10,VWS V14.00,2013-09-27 01:26:00,
2013-09-26 21:31:00,58.1,56.1,29.36,ESE,121,0.0,0.0,93,0.00,,,0.10,VWS V14.00,2013-09-27 01:31:00,
2013-09-26 21:36:00,58.0,56.0,29.36,ESE,121,0.0,0.0,93,0.00,,,0.10,VWS V14.00,2013-09-27 01:36:00,
2013-09-26 21:41:00,57.9,55.9,29.36,ESE,121,0.0,0.0,93,0.00,,,0.10,VWS V14.00,2013-09-27 01:41:00,
2013-09-26 21:46:00,57.8,55.8,29.36,ESE,121,0.0,0.0,93,0.00,,,0.10,VWS V14.00,2013-09-27 01:46:00,
2013-09-26 21:51:00,57.7,55.4,29.36,ESE,121,0.0,0.0,92,0.00,,,0.10,VWS V14.00,2013-09-27 01:51:00,
2013-09-26 21:56:00,57.8,55.2,29.37,ESE,121,0.0,0.0,91,0.00,,,0.10,VWS V14.00,2013-09-27 01:56:00,
2013-09-26 22:01:00,57.9,55.3,29.37,ESE,121,0.0,0.0,91,0.00,,,0.10,VWS V14.00,2013-09-27 02:01:00,
2013-09-26 22:06:00,58.1,55.5,29.37,ESE,121,0.0,0.0,91,0.00,,,0.10,VWS V14.00,2013-09-27 02:06:00,
2013-09-26 22:11:00,58.1,55.2,29.37,ESE,121,0.0,0.0,90,0.00,,,0.10,VWS V14.00,2013-09-27 02:11:00,
2013-09-26 22:16:00,58.1,55.2,29.38,ESE,121,0.0,0.0,90,0.00,,,0.10,VWS V14.00,2013-09-27 02:16:00,
2013-09-26 22:21:00,58.0,55.4,29.37,ESE,121,0.0,0.0,91,0.00,,,0.10,VWS V14.00,2013-09-27 02:21:00,
2013-09-26 22:26:00,57.8,55.2,29.38,ESE,121,0.0,0.0,91,0.00,,,0.10,VWS V14.00,2013-09-27 02:26:00,
2013-09-26 22:31:00,57.5,55.2,29.38,ESE,121,0.0,0.0,92,0.00,,,0.10,VWS V14.00,2013-09-27 02:31:00,
2013-09-26 22:36:00,57.4,55.1,29.38,ESE,121,0.0,0.0,92,0.00,,,0.10,VWS V14.00,2013-09-27 02:36:00,
2013-09-26 22:41:00,57.1,55.1,29.38,ESE,121,0.0,0.0,93,0.00,,,0.10,VWS V14.00,2013-09-27 02:41:00,
2013-09-26 22:46:00,57.1,55.1,29.38,ESE,121,0.0,0.0,93,0.00,,,0.10,VWS V14.00,2013-09-27 02:46:00,
2013-09-26 22:51:00,56.9,54.9,29.38,ESE,121,0.0,0.0,93,0.00,,,0.10,VWS V14.00,2013-09-27 02:51:00,
2013-09-26 22:56:00,56.9,54.9,29.38,ESE,121,0.0,0.0,93,0.00,,,0.10,VWS V14.00,2013-09-27 02:56:00,
2013-09-26 23:01:00,56.8,54.8,29.38,ESE,121,0.0,0.0,93,0.00,,,0.10,VWS V14.00,2013-09-27 03:01:00,
2013-09-26 23:06:00,56.8,54.8,29.39,ESE,121,0.0,0.0,93,0.00,,,0.10,VWS V14.00,2013-09-27 03:06:00,
2013-09-26 23:11:00,56.8,54.8,29.38,ESE,121,0.0,1.0,93,0.00,,,0.10,VWS V14.00,2013-09-27 03:11:00,
2013-09-26 23:16:00,56.8,54.8,29.38,ESE,121,0.0,1.0,93,0.00,,,0.10,VWS V14.00,2013-09-27 03:16:00,
2013-09-26 23:21:00,56.8,54.8,29.38,ESE,121,0.0,1.0,93,0.00,,,0.10,VWS V14.00,2013-09-27 03:21:00,
2013-09-26 23:26:00,56.9,54.9,29.39,SSW,200,0.0,1.0,93,0.00,,,0.10,VWS V14.00,2013-09-27 03:26:00,
2013-09-26 23:32:00,57.1,55.1,29.39,SSW,198,0.0,1.0,93,0.00,,,0.10,VWS V14.00,2013-09-27 03:32:00,
2013-09-26 23:37:00,57.3,55.3,29.39,SSW,198,0.0,0.0,93,0.00,,,0.10,VWS V14.00,2013-09-27 03:37:00,
2013-09-26 23:42:00,57.4,55.1,29.39,SSW,198,0.0,0.0,92,0.00,,,0.10,VWS V14.00,2013-09-27 03:42:00,
2013-09-26 23:47:00,57.3,55.0,29.39,SSW,198,0.0,0.0,92,0.00,,,0.10,VWS V14.00,2013-09-27 03:47:00,
2013-09-26 23:52:00,57.0,55.0,29.40,SSW,198,0.0,0.0,93,0.00,,,0.10,VWS V14.00,2013-09-27 03:52:00,
2013-09-26 23:57:00,56.6,54.6,29.39,SSW,198,0.0,0.0,93,0.00,,,0.10,VWS V14.00,2013-09-27 03:57:00,